Time;durP1;ratioP1;P1;durP2;ratioP2;P2;SDS_P1;SDS_P2;PMS_P1;PMS_P2;Temp;Humidity;BMP_temperature;BMP_pressure;BME280_temperature;BME280_humidity;BME280_pressure;Samples;Min_cycle;Max_cycle;Signal;HPM_P1;HPM_P2
2023/01/21 01:33:09;;;;;;;25.42;16.35;;;0.50;99.90;;;;;;4783404;29;20394;-84
2023/01/21 01:35:45;;;;;;;;;;;;;;;;;;;;;
2023/01/21 01:38:13;;;;;;;23.75;16.67;;;0.60;99.90;;;;;;4784647;29;20391;-82
2023/01/21 01:41:28;;;;;;;21.65;15.65;;;0.70;99.90;;;;;;4889602;29;20917;-82
2023/01/21 01:44:11;;;;;;;23.08;16.98;;;0.70;99.90;;;;;;4893114;29;20404;-82
2023/01/21 01:50:12;;;;;;;;;;;;;;;;;;;;;
2023/01/21 01:53:06;;;;;;;21.45;16.00;;;0.50;99.90;;;;;;4893911;29;20412;-82
2023/01/21 01:56:03;;;;;;;22.40;15.45;;;0.50;99.90;;;;;;4893532;29;20453;-82
2023/01/21 01:58:40;;;;;;;24.48;15.55;;;0.40;99.90;;;;;;4895299;29;20413;-82
2023/01/21 02:01:20;;;;;;;21.92;15.35;;;0.40;99.90;;;;;;4907034;29;20495;-82
2023/01/21 02:04:09;;;;;;;23.63;16.73;;;0.50;99.90;;;;;;4914232;29;20463;-83
2023/01/21 02:06:56;;;;;;;;;;;;;;;;;;;;;
2023/01/21 02:09:47;;;;;;;21.25;15.02;;;0.50;99.90;;;;;;4916546;29;20478;-82
2023/01/21 02:15:20;;;;;;;22.88;14.70;;;0.40;99.90;;;;;;4918568;29;20398;-83
2023/01/21 02:18:34;;;;;;;;;;;;;;;;;;;;;
2023/01/21 02:21:17;;;;;;;20.42;14.63;;;0.40;99.90;;;;;;4890063;29;20451;-82
2023/01/21 02:24:43;;;;;;;;;;;;;;;;;;;;;
2023/01/21 02:27:24;;;;;;;18.80;14.67;;;0.40;99.90;;;;;;4841122;29;20425;-82
2023/01/21 02:30:27;;;;;;;22.58;14.77;;;0.50;99.90;;;;;;4898958;29;20391;-83
2023/01/21 02:33:16;;;;;;;19.48;14.32;;;0.50;99.90;;;;;;4907968;29;20865;-82
2023/01/21 02:36:13;;;;;;;;;;;;;;;;;;;;;
2023/01/21 02:42:23;;;;;;;20.27;14.55;;;0.60;99.90;;;;;;4905743;29;20392;-82
2023/01/21 02:52:26;;;;;;;17.08;13.68;;;0.50;99.90;;;;;;4816760;29;20501;-82
2023/01/21 02:55:02;;;;;;;18.38;12.85;;;0.60;99.90;;;;;;4858171;29;20392;-82
2023/01/21 03:01:05;;;;;;;;;;;;;;;;;;;;;
2023/01/21 03:04:15;;;;;;;;;;;;;;;;;;;;;
2023/01/21 03:07:27;;;;;;;16.88;11.73;;;0.70;99.90;;;;;;4910824;29;20416;-81
2023/01/21 04:58:18;;;;;;;17.35;12.35;;;-0.10;99.90;;;;;;4764054;29;20407;-82
2023/01/21 05:01:22;;;;;;;15.95;12.13;;;-0.10;99.90;;;;;;4893914;28;20442;-83
2023/01/21 05:03:51;;;;;;;14.43;11.45;;;-0.10;99.90;;;;;;4933006;29;20410;-82
2023/01/21 05:06:55;;;;;;;;;;;;;;;;;;;;;
2023/01/21 05:09:34;;;;;;;;;;;;;;;;;;;;;
2023/01/21 05:12:33;;;;;;;;;;;;;;;;;;;;;
2023/01/21 05:18:03;;;;;;;14.77;11.65;;;-0.30;99.90;;;;;;4964331;28;20453;-82
2023/01/21 05:21:29;;;;;;;;;;;;;;;;;;;;;
2023/01/21 05:35:31;;;;;;;;;;;;;;;;;;;;;
2023/01/21 05:51:34;;;;;;;16.50;12.18;;;-0.10;99.90;;;;;;4836176;29;20438;-82
2023/01/21 06:12:51;;;;;;;15.25;12.30;;;0.10;99.90;;;;;;4855300;29;20418;-83
2023/01/21 06:44:41;;;;;;;13.82;10.05;;;0.60;99.90;;;;;;4731297;29;20935;-83
2023/01/21 06:47:07;;;;;;;13.98;10.60;;;0.80;99.90;;;;;;4855979;29;20451;-83
2023/01/21 06:49:33;;;;;;;13.03;9.97;;;0.80;99.90;;;;;;4918155;28;20406;-82
2023/01/21 06:51:58;;;;;;;14.73;10.70;;;0.80;99.90;;;;;;4970172;28;20410;-83
2023/01/21 06:54:29;;;;;;;15.40;11.07;;;0.80;99.90;;;;;;4972538;28;20381;-83
2023/01/21 06:56:55;;;;;;;13.43;10.73;;;0.80;99.90;;;;;;4970362;28;20473;-83
2023/01/21 06:59:21;;;;;;;15.15;11.00;;;0.90;99.90;;;;;;4973453;28;20493;-83
2023/01/21 07:01:52;;;;;;;16.13;11.20;;;1.00;99.90;;;;;;4973622;28;20430;-83
2023/01/21 07:04:21;;;;;;;16.05;11.43;;;0.90;99.90;;;;;;4958748;28;20386;-82
2023/01/21 07:06:46;;;;;;;16.70;11.93;;;1.10;99.90;;;;;;4973438;28;20877;-83
2023/01/21 07:09:14;;;;;;;16.67;12.20;;;1.00;99.90;;;;;;4974255;28;20387;-83
2023/01/21 07:11:43;;;;;;;16.80;11.95;;;1.10;99.90;;;;;;4970087;28;20472;-84
2023/01/21 07:14:09;;;;;;;15.95;12.63;;;1.10;99.90;;;;;;4975285;28;20374;-83
2023/01/21 07:16:38;;;;;;;17.55;13.65;;;1.00;99.90;;;;;;4974802;28;20375;-83
2023/01/21 07:19:09;;;;;;;15.65;12.85;;;1.20;99.90;;;;;;4976319;28;20386;-84
2023/01/21 07:21:40;;;;;;;17.45;13.35;;;1.20;99.90;;;;;;4958682;28;20891;-83
2023/01/21 07:24:11;;;;;;;18.67;13.55;;;1.20;99.90;;;;;;4975308;28;20411;-82
2023/01/21 07:26:37;;;;;;;16.33;12.75;;;1.20;99.90;;;;;;4971755;28;20405;-82
2023/01/21 07:29:10;;;;;;;18.75;14.60;;;1.30;99.90;;;;;;4972630;28;20402;-83
2023/01/21 07:31:36;;;;;;;19.95;14.27;;;1.30;99.90;;;;;;4953171;28;20408;-82
2023/01/21 07:34:02;;;;;;;20.50;15.77;;;1.30;99.90;;;;;;4956150;29;20475;-83
2023/01/21 07:36:28;;;;;;;20.17;15.27;;;1.40;99.90;;;;;;4953756;29;20387;-84
2023/01/21 07:38:55;;;;;;;20.98;14.90;;;1.30;99.90;;;;;;4953229;28;20384;-83
2023/01/21 07:41:24;;;;;;;21.90;15.45;;;1.30;99.90;;;;;;4937655;29;20391;-83
2023/01/21 07:43:50;;;;;;;18.35;15.38;;;1.40;99.90;;;;;;4952935;29;20784;-82
2023/01/21 07:46:16;;;;;;;20.50;15.75;;;1.50;99.90;;;;;;4954412;29;20384;-83
2023/01/21 07:48:42;;;;;;;20.92;14.98;;;1.40;99.90;;;;;;4950572;29;20482;-81
2023/01/21 07:51:08;;;;;;;21.17;15.23;;;1.50;99.90;;;;;;4953255;29;20415;-82
2023/01/21 07:53:35;;;;;;;20.50;15.45;;;1.50;99.90;;;;;;4955436;29;20376;-82
2023/01/21 07:56:06;;;;;;;19.65;15.18;;;1.60;99.90;;;;;;4955165;29;20511;-81
2023/01/21 07:58:32;;;;;;;19.92;15.27;;;1.50;99.90;;;;;;4937444;29;20411;-82
2023/01/21 08:00:58;;;;;;;20.70;15.93;;;1.40;99.90;;;;;;4954542;29;20410;-83
2023/01/21 08:03:24;;;;;;;20.85;16.00;;;1.40;99.90;;;;;;4954207;29;20387;-82
2023/01/21 08:05:51;;;;;;;19.55;16.25;;;1.50;99.90;;;;;;4938112;29;20376;-82
2023/01/21 08:08:17;;;;;;;21.23;16.10;;;1.40;99.90;;;;;;4955255;29;20370;-82
2023/01/21 08:10:51;;;;;;;20.30;16.50;;;1.50;99.90;;;;;;4966348;28;20410;-82
2023/01/21 08:13:17;;;;;;;21.70;16.55;;;1.50;99.90;;;;;;4972801;28;20412;-82
2023/01/21 08:15:43;;;;;;;19.13;16.27;;;1.60;99.90;;;;;;4971695;28;20395;-83
2023/01/21 08:18:09;;;;;;;19.00;15.47;;;1.70;99.90;;;;;;4961462;28;20400;-83
2023/01/21 08:20:36;;;;;;;19.33;15.88;;;1.60;99.90;;;;;;4954715;28;20396;-82
2023/01/21 08:23:06;;;;;;;19.90;15.23;;;1.60;99.90;;;;;;4948325;28;20459;-81
2023/01/21 08:25:31;;;;;;;18.67;15.35;;;1.60;99.90;;;;;;4945081;28;20436;-82
2023/01/21 08:30:52;;;;;;;18.15;14.27;;;1.70;99.90;;;;;;4945796;28;20874;-82
2023/01/21 08:33:18;;;;;;;18.13;14.57;;;1.70;99.90;;;;;;4953107;28;20410;-82
2023/01/21 08:35:44;;;;;;;17.13;14.65;;;1.70;99.90;;;;;;4956054;28;20497;-81
2023/01/21 08:38:10;;;;;;;17.97;14.60;;;1.80;99.90;;;;;;4971666;28;20421;-82
2023/01/21 08:40:36;;;;;;;18.73;15.07;;;1.80;99.90;;;;;;4972656;28;20948;-81
2023/01/21 08:43:03;;;;;;;18.77;15.20;;;1.80;99.90;;;;;;4939613;28;20910;-83
2023/01/21 08:45:32;;;;;;;18.70;14.35;;;1.90;99.90;;;;;;4927152;29;20376;-82
2023/01/21 08:48:03;;;;;;;19.70;15.48;;;2.00;99.90;;;;;;4952317;28;20383;-83
2023/01/21 08:50:37;;;;;;;17.95;15.10;;;1.90;99.90;;;;;;4952107;28;20463;-82
2023/01/21 08:53:05;;;;;;;19.40;15.38;;;1.90;99.90;;;;;;4962525;28;20387;-82
2023/01/21 08:55:44;;;;;;;18.85;15.13;;;1.80;99.90;;;;;;4968347;28;20390;-81
2023/01/21 08:58:10;;;;;;;17.80;14.75;;;1.90;99.90;;;;;;4971633;28;20405;-81
2023/01/21 09:00:54;;;;;;;;;;;;;;;;;;;;;
2023/01/21 09:03:20;;;;;;;18.45;15.02;;;2.00;99.90;;;;;;4969668;28;20378;-81
2023/01/21 09:05:50;;;;;;;20.00;15.27;;;2.00;99.90;;;;;;4952685;28;20510;-82
2023/01/21 09:08:26;;;;;;;19.35;15.32;;;2.10;99.90;;;;;;4959718;28;20400;-82
2023/01/21 09:11:02;;;;;;;19.85;15.52;;;2.20;99.90;;;;;;4952497;29;20376;-81
2023/01/21 09:13:33;;;;;;;21.05;16.65;;;2.20;99.90;;;;;;4952909;29;20380;-80
2023/01/21 09:15:59;;;;;;;18.48;15.80;;;2.20;99.90;;;;;;4953030;29;20443;-81
2023/01/21 09:18:25;;;;;;;19.73;15.98;;;2.40;99.90;;;;;;4950937;29;20395;-81
2023/01/21 09:20:51;;;;;;;19.63;15.83;;;2.30;99.90;;;;;;4952426;28;20407;-81
2023/01/21 09:26:23;;;;;;;19.40;16.23;;;2.20;99.90;;;;;;4949370;28;20433;-82
2023/01/21 09:28:55;;;;;;;20.80;16.88;;;2.20;99.90;;;;;;4941897;29;20372;-82
2023/01/21 09:31:29;;;;;;;20.95;16.75;;;2.30;99.90;;;;;;4949669;28;20388;-81
2023/01/21 09:34:02;;;;;;;21.10;18.10;;;2.40;99.90;;;;;;4943452;28;20412;-81
2023/01/21 09:36:30;;;;;;;21.58;17.23;;;2.40;99.90;;;;;;4959337;28;20391;-81
2023/01/21 09:38:57;;;;;;;25.08;19.10;;;2.50;99.90;;;;;;4942446;28;20380;-82
2023/01/21 09:42:05;;;;;;;20.08;16.45;;;2.60;99.90;;;;;;5104261;27;20397;-82
2023/01/21 09:44:43;;;;;;;22.23;16.80;;;2.70;99.90;;;;;;5105208;28;20383;-83
2023/01/21 09:47:16;;;;;;;19.97;15.93;;;2.60;99.90;;;;;;5100270;28;20471;-78
2023/01/21 09:49:52;;;;;;;19.40;16.63;;;2.50;99.90;;;;;;5103774;28;20427;-82
2023/01/21 09:52:27;;;;;;;21.02;17.38;;;2.60;99.90;;;;;;5103080;28;20395;-81
2023/01/21 09:54:54;;;;;;;19.05;16.38;;;2.60;99.90;;;;;;5098004;28;20499;-81
2023/01/21 09:57:45;;;;;;;19.73;16.48;;;2.70;99.90;;;;;;5100967;28;20398;-81
2023/01/21 10:00:23;;;;;;;18.98;16.20;;;2.90;99.90;;;;;;5099604;28;20498;-81
2023/01/21 10:14:08;;;;;;;20.30;16.63;;;2.90;99.90;;;;;;5043037;28;20361;-82
2023/01/21 10:45:41;;;;;;;;;;;;;;;;;;;;;
2023/01/21 10:48:52;;;;;;;;;;;;;;;;;;;;;
2023/01/21 10:52:07;;;;;;;20.05;17.33;;;2.90;99.90;;;;;;5047037;28;20391;-81
2023/01/21 10:55:50;;;;;;;;;;;;;;;;;;;;;
2023/01/21 10:59:15;;;;;;;;;;;;;;;;;;;;;
2023/01/21 11:02:49;;;;;;;;;;;;;;;;;;;;;
2023/01/21 11:06:05;;;;;;;;;;;;;;;;;;;;;
2023/01/21 11:09:23;;;;;;;23.35;18.85;;;2.80;99.90;;;;;;5090028;28;20376;-81
2023/01/21 11:12:02;;;;;;;;;;;;;;;;;;;;;
2023/01/21 11:14:37;;;;;;;23.10;19.10;;;2.70;99.90;;;;;;5091038;28;20365;-81
2023/01/21 11:17:46;;;;;;;;;;;;;;;;;;;;;
2023/01/21 11:24:00;;;;;;;26.90;19.52;;;3.00;99.90;;;;;;5056109;28;20390;-80
2023/01/21 11:27:07;;;;;;;22.75;17.95;;;3.00;99.90;;;;;;5081882;28;20982;-80
2023/01/21 11:29:46;;;;;;;25.75;18.77;;;3.20;99.90;;;;;;5112062;28;20443;-82
2023/01/21 11:32:32;;;;;;;21.90;16.58;;;3.20;99.90;;;;;;5110647;28;20373;-81
2023/01/21 11:35:18;;;;;;;;;;;;;;;;;;;;;
2023/01/21 11:41:46;;;;;;;;;;;;;;;;;;;;;
2023/01/21 11:45:04;;;;;;;20.85;16.42;;;3.30;99.90;;;;;;5090022;28;20388;-81
2023/01/21 11:47:57;;;;;;;20.60;16.85;;;3.20;99.90;;;;;;5085755;28;20431;-81
2023/01/21 11:51:25;;;;;;;22.17;16.30;;;3.30;99.90;;;;;;5078954;28;20381;-82
2023/01/21 11:57:04;;;;;;;23.20;17.15;;;3.40;99.90;;;;;;5088086;28;20420;-80
2023/01/21 11:59:47;;;;;;;22.67;16.98;;;3.40;99.90;;;;;;5087369;28;20380;-82
2023/01/21 12:06:03;;;;;;;21.50;15.98;;;3.60;99.90;;;;;;5080027;28;20382;-81
2023/01/21 12:09:14;;;;;;;20.00;14.95;;;3.60;99.90;;;;;;5101902;28;20423;-80
2023/01/21 12:12:14;;;;;;;19.75;15.10;;;3.70;99.90;;;;;;5089432;28;20382;-80
2023/01/21 12:15:02;;;;;;;18.05;14.20;;;3.70;99.90;;;;;;5045846;28;20729;-81
2023/01/21 12:18:07;;;;;;;19.58;14.90;;;3.70;99.90;;;;;;5088932;28;20847;-81
2023/01/21 12:21:48;;;;;;;;;;;;;;;;;;;;;
2023/01/21 12:24:38;;;;;;;16.60;13.15;;;3.70;99.90;;;;;;5049694;28;20433;-81
2023/01/21 12:27:58;;;;;;;16.88;13.80;;;3.40;99.90;;;;;;5019387;28;20434;-81
2023/01/21 12:31:06;;;;;;;17.88;12.15;;;3.70;99.90;;;;;;5090510;28;20468;-81
2023/01/21 12:33:49;;;;;;;16.60;12.63;;;3.80;99.90;;;;;;5088952;28;20407;-80
2023/01/21 12:41:14;;;;;;;;;;;;;;;;;;;;;
2023/01/21 12:43:48;;;;;;;13.48;10.45;;;4.00;99.90;;;;;;5053555;28;20694;-81
2023/01/21 12:46:26;;;;;;;11.90;9.93;;;4.00;99.90;;;;;;5056086;27;20407;-81
2023/01/21 12:56:08;;;;;;;11.27;8.50;;;4.10;99.90;;;;;;5038258;28;20408;-81
2023/01/21 12:59:06;;;;;;;11.00;8.57;;;4.10;99.90;;;;;;5000039;28;20399;-80
2023/01/21 13:02:25;;;;;;;10.27;8.25;;;3.90;99.90;;;;;;5015015;28;20814;-80
2023/01/21 13:08:55;;;;;;;9.88;7.97;;;4.10;99.90;;;;;;4978931;28;20414;-81
2023/01/21 13:12:07;;;;;;;8.70;7.70;;;4.20;99.90;;;;;;4954698;28;20397;-79
2023/01/21 13:15:32;;;;;;;;;;;;;;;;;;;;;
2023/01/21 13:25:58;;;;;;;;;;;;;;;;;;;;;
2023/01/21 13:36:02;;;;;;;;;;;;;;;;;;;;;
2023/01/21 13:39:25;;;;;;;8.45;6.45;;;4.20;99.90;;;;;;4995520;28;20836;-81
2023/01/21 13:41:59;;;;;;;6.47;5.43;;;4.10;99.90;;;;;;4999180;28;20766;-81
2023/01/21 13:44:43;;;;;;;;;;;;;;;;;;;;;
2023/01/21 13:48:09;;;;;;;;;;;;;;;;;;;;;
2023/01/21 13:50:54;;;;;;;8.85;5.90;;;4.20;99.90;;;;;;5085355;28;20404;-81
2023/01/21 13:56:55;;;;;;;7.60;5.68;;;4.20;99.90;;;;;;5079218;28;20380;-82
2023/01/21 13:59:45;;;;;;;7.43;5.47;;;4.20;99.90;;;;;;5085742;28;20772;-81
2023/01/21 14:03:11;;;;;;;;;;;;;;;;;;;;;
2023/01/21 14:06:12;;;;;;;6.57;5.13;;;4.20;99.90;;;;;;5086329;28;20889;-81
2023/01/21 14:12:42;;;;;;;6.38;5.10;;;4.20;99.90;;;;;;5030287;28;20894;-81
2023/01/21 14:22:38;;;;;;;;;;;;;;;;;;;;;
2023/01/21 14:29:09;;;;;;;;;;;;;;;;;;;;;
2023/01/21 14:35:55;;;;;;;;;;;;;;;;;;;;;
2023/01/21 14:39:08;;;;;;;5.65;4.50;;;3.90;99.90;;;;;;5016993;28;20370;-81
2023/01/21 14:42:52;;;;;;;6.03;4.33;;;3.90;99.90;;;;;;5017591;28;20393;-80
2023/01/21 14:46:36;;;;;;;5.30;4.30;;;3.80;99.90;;;;;;4898286;29;20404;-81
2023/01/21 14:54:10;;;;;;;;;;;;;;;;;;;;;
2023/01/21 15:08:16;;;;;;;5.00;4.10;;;3.80;99.90;;;;;;4770387;29;20798;-81
2023/01/21 15:11:37;;;;;;;;;;;;;;;;;;;;;
2023/01/21 15:25:37;;;;;;;;;;;;;;;;;;;;;
2023/01/21 15:43:23;;;;;;;4.97;3.67;;;3.80;99.90;;;;;;4843082;29;20927;-80
2023/01/21 15:46:26;;;;;;;;;;;;;;;;;;;;;
2023/01/21 15:49:25;;;;;;;5.13;3.63;;;3.70;99.90;;;;;;4884420;29;20411;-82
2023/01/21 15:52:31;;;;;;;6.15;4.25;;;3.70;99.90;;;;;;4888640;29;20420;-81
2023/01/21 15:55:20;;;;;;;5.70;3.58;;;3.80;99.90;;;;;;4913895;28;20468;-80
2023/01/21 15:58:24;;;;;;;5.10;3.90;;;3.80;99.90;;;;;;4979265;28;20450;-80
2023/01/21 16:01:25;;;;;;;5.75;3.80;;;3.80;99.90;;;;;;4964151;28;20850;-80
2023/01/21 16:04:20;;;;;;;7.43;4.10;;;3.80;99.90;;;;;;5045969;28;20372;-81
2023/01/21 16:07:31;;;;;;;5.28;3.88;;;3.80;99.90;;;;;;5046409;28;20392;-82
2023/01/21 16:10:44;;;;;;;6.30;3.83;;;3.80;99.90;;;;;;5062601;28;20866;-80
2023/01/21 16:13:44;;;;;;;5.97;4.63;;;3.70;99.90;;;;;;5030698;28;20379;-81
2023/01/21 16:16:36;;;;;;;7.28;4.53;;;3.70;99.90;;;;;;5062345;28;20408;-80
2023/01/21 16:22:00;;;;;;;9.88;4.38;;;3.60;99.90;;;;;;5024179;28;20381;-81
2023/01/21 16:25:14;;;;;;;;;;;;;;;;;;;;;
2023/01/21 16:31:11;;;;;;;5.15;3.70;;;3.50;99.90;;;;;;5086669;28;20383;-80
2023/01/21 16:33:50;;;;;;;5.93;3.83;;;3.40;99.90;;;;;;5089650;28;20383;-82
2023/01/21 16:37:02;;;;;;;6.65;3.88;;;3.40;99.90;;;;;;5089054;28;20376;-80
2023/01/21 16:39:39;;;;;;;7.72;4.07;;;3.50;99.90;;;;;;5087552;28;20392;-82
2023/01/21 16:42:52;;;;;;;7.22;4.10;;;3.50;99.90;;;;;;5089317;28;20369;-81
2023/01/21 16:45:38;;;;;;;6.05;3.80;;;3.50;99.90;;;;;;5057080;28;20376;-81
2023/01/21 16:48:24;;;;;;;8.43;4.40;;;3.40;99.90;;;;;;5088112;28;20518;-82
2023/01/21 16:51:22;;;;;;;8.07;5.00;;;3.20;99.90;;;;;;5061301;28;20384;-81
2023/01/21 16:54:08;;;;;;;8.40;5.63;;;3.00;99.90;;;;;;5087939;28;20372;-80
2023/01/21 16:57:03;;;;;;;6.50;5.28;;;2.80;99.90;;;;;;5090678;28;20375;-81
2023/01/21 17:06:45;;;;;;;9.15;5.60;;;2.60;99.90;;;;;;5039709;28;20405;-82
2023/01/21 17:10:14;;;;;;;11.02;6.05;;;2.60;99.90;;;;;;5047094;28;20380;-82
2023/01/21 17:15:45;;;;;;;8.57;5.68;;;2.40;99.90;;;;;;5076423;28;20924;-81
2023/01/21 17:18:23;;;;;;;10.85;6.13;;;2.40;99.90;;;;;;5086271;28;20449;-80
2023/01/21 17:21:16;;;;;;;11.07;6.70;;;2.40;99.90;;;;;;5091308;28;20387;-81
2023/01/21 17:23:55;;;;;;;10.00;6.68;;;2.40;99.90;;;;;;5079781;28;20727;-80
2023/01/21 17:26:28;;;;;;;11.63;6.97;;;2.40;99.90;;;;;;5096617;28;20882;-81
2023/01/21 17:29:06;;;;;;;10.98;6.95;;;2.40;99.90;;;;;;5089892;28;20369;-80
2023/01/21 17:31:41;;;;;;;10.20;6.38;;;2.40;99.90;;;;;;5086629;28;20475;-81
2023/01/21 17:35:09;;;;;;;;;;;;;;;;;;;;;
2023/01/21 17:41:14;;;;;;;12.75;7.22;;;2.40;99.90;;;;;;5070227;28;20392;-80
2023/01/21 17:44:25;;;;;;;12.50;7.20;;;2.40;99.90;;;;;;5086965;28;20423;-81
2023/01/21 17:50:23;;;;;;;12.30;7.03;;;2.50;99.90;;;;;;5082427;28;20371;-81
2023/01/21 17:53:12;;;;;;;11.18;6.88;;;2.50;99.90;;;;;;5054346;28;20475;-81
2023/01/21 17:56:01;;;;;;;10.82;6.80;;;2.50;99.90;;;;;;5086284;28;20501;-81
2023/01/21 17:58:54;;;;;;;11.87;6.93;;;2.50;99.90;;;;;;5082407;28;20429;-81
2023/01/21 18:01:20;;;;;;;11.55;7.13;;;2.60;99.90;;;;;;5085049;28;20394;-81
2023/01/21 18:03:46;;;;;;;11.48;6.97;;;2.60;99.90;;;;;;5092946;28;20460;-81
2023/01/21 18:06:25;;;;;;;12.55;7.13;;;2.60;99.90;;;;;;5086100;28;20395;-82
2023/01/21 18:09:16;;;;;;;14.13;7.20;;;2.60;99.90;;;;;;5085430;28;20818;-81
2023/01/21 18:11:48;;;;;;;9.43;6.60;;;2.70;99.90;;;;;;5085758;28;20418;-82
2023/01/21 18:14:20;;;;;;;10.00;7.18;;;2.60;99.90;;;;;;5104862;27;20380;-82
2023/01/21 18:16:52;;;;;;;11.93;6.88;;;2.60;99.90;;;;;;5090481;28;20932;-82
2023/01/21 18:19:50;;;;;;;11.82;7.18;;;2.60;99.90;;;;;;5092270;28;20444;-81
2023/01/21 18:22:42;;;;;;;11.50;7.07;;;2.50;99.90;;;;;;5073201;28;20384;-81
2023/01/21 18:25:14;;;;;;;11.07;6.97;;;2.50;99.90;;;;;;5066752;28;20380;-81
2023/01/21 18:27:53;;;;;;;11.57;7.10;;;2.50;99.90;;;;;;5090588;28;20448;-82
2023/01/21 18:30:24;;;;;;;10.23;6.63;;;2.50;99.90;;;;;;5092707;28;20364;-83
2023/01/21 18:32:53;;;;;;;11.75;7.22;;;2.40;99.90;;;;;;5090807;28;20773;-80
2023/01/21 18:35:27;;;;;;;13.18;7.60;;;2.40;99.90;;;;;;5093390;28;20364;-82
2023/01/21 18:38:13;;;;;;;11.15;7.47;;;2.40;99.90;;;;;;5088960;28;20490;-81
2023/01/21 18:40:51;;;;;;;;;;;;;;;;;;;;;
2023/01/21 18:43:17;;;;;;;12.55;7.93;;;2.40;99.90;;;;;;5091065;28;20866;-81
2023/01/21 18:45:43;;;;;;;12.43;7.70;;;2.40;99.90;;;;;;5091235;28;20467;-81
2023/01/21 18:48:12;;;;;;;15.83;8.00;;;2.30;99.90;;;;;;5088198;28;20824;-82
2023/01/21 18:50:53;;;;;;;;;;;;;;;;;;;;;
2023/01/21 18:53:19;;;;;;;13.20;7.97;;;2.30;99.90;;;;;;5088305;27;20403;-83
2023/01/21 18:55:52;;;;;;;12.07;7.78;;;2.40;99.90;;;;;;5086232;28;20388;-81
2023/01/21 18:58:26;;;;;;;12.75;8.00;;;2.30;99.90;;;;;;5091338;28;20368;-80
2023/01/21 19:00:59;;;;;;;12.73;8.10;;;2.30;99.90;;;;;;5090358;28;20425;-82
2023/01/21 19:03:25;;;;;;;14.85;8.65;;;2.30;99.90;;;;;;5090559;28;20383;-81
2023/01/21 19:05:51;;;;;;;11.90;7.82;;;2.30;99.90;;;;;;5102535;27;20763;-81
2023/01/21 19:08:31;;;;;;;11.82;7.88;;;2.30;99.90;;;;;;5092766;28;20368;-81
2023/01/21 19:10:56;;;;;;;13.20;8.07;;;2.40;99.90;;;;;;5091185;28;20422;-81
2023/01/21 19:13:25;;;;;;;14.27;8.13;;;2.40;99.90;;;;;;5098440;28;20706;-82
2023/01/21 19:15:56;;;;;;;11.70;7.95;;;2.40;99.90;;;;;;5111295;28;20419;-81
2023/01/21 19:18:22;;;;;;;11.10;7.80;;;2.40;99.90;;;;;;5088741;28;20739;-81
2023/01/21 19:20:47;;;;;;;13.60;9.70;;;2.40;99.90;;;;;;5111044;28;20546;-81
2023/01/21 19:23:16;;;;;;;12.65;7.72;;;2.40;99.90;;;;;;5099146;28;20369;-82
2023/01/21 19:25:53;;;;;;;12.32;7.90;;;2.40;99.90;;;;;;5090608;28;20369;-81
2023/01/21 19:28:45;;;;;;;14.35;7.97;;;2.50;99.90;;;;;;5088392;28;20371;-82
2023/01/21 19:31:16;;;;;;;13.60;7.65;;;2.40;99.90;;;;;;5092495;28;20372;-82
2023/01/21 19:33:44;;;;;;;11.93;7.63;;;2.40;99.90;;;;;;5085403;28;20497;-81
2023/01/21 19:36:16;;;;;;;13.30;7.90;;;2.50;99.90;;;;;;5081962;28;20978;-81
2023/01/21 19:38:53;;;;;;;13.90;7.90;;;2.40;99.90;;;;;;5086685;28;20464;-83
2023/01/21 19:41:19;;;;;;;15.65;8.50;;;2.50;99.90;;;;;;5089212;28;20716;-82
2023/01/21 19:43:47;;;;;;;12.30;7.72;;;2.40;99.90;;;;;;5092144;28;20375;-83
2023/01/21 19:46:13;;;;;;;11.33;7.70;;;2.40;99.90;;;;;;5092403;28;20372;-83
2023/01/21 19:48:44;;;;;;;14.55;7.57;;;2.50;99.90;;;;;;5092318;28;20368;-83
2023/01/21 19:51:10;;;;;;;10.80;7.22;;;2.40;99.90;;;;;;5090813;28;20803;-81
2023/01/21 19:53:39;;;;;;;11.53;7.07;;;2.30;99.90;;;;;;5091744;28;20783;-82
2023/01/21 19:56:05;;;;;;;12.00;7.22;;;2.30;99.90;;;;;;5090933;28;20379;-83
2023/01/21 19:58:34;;;;;;;14.07;7.57;;;2.20;99.90;;;;;;5092139;28;20392;-81
2023/01/21 20:01:00;;;;;;;11.67;7.37;;;2.30;99.90;;;;;;5088081;28;20878;-83
2023/01/21 20:03:26;;;;;;;10.48;7.00;;;2.40;99.90;;;;;;5090899;28;20380;-82
2023/01/21 20:05:56;;;;;;;12.20;6.95;;;2.30;99.90;;;;;;5091803;28;20361;-82
2023/01/21 20:08:26;;;;;;;11.40;6.77;;;2.40;99.90;;;;;;5091781;28;20450;-81
2023/01/21 20:10:58;;;;;;;10.73;7.15;;;2.40;99.90;;;;;;5088596;28;20412;-82
2023/01/21 20:13:26;;;;;;;11.07;7.30;;;2.40;99.90;;;;;;5089087;28;20715;-82
2023/01/21 20:15:52;;;;;;;11.98;6.90;;;2.40;99.90;;;;;;5091093;28;20734;-81
2023/01/21 20:18:26;;;;;;;14.33;7.50;;;2.40;99.90;;;;;;5092072;28;20451;-82
2023/01/21 20:20:53;;;;;;;10.90;6.72;;;2.40;99.90;;;;;;5090106;28;20456;-80
2023/01/21 20:23:21;;;;;;;11.20;7.10;;;2.40;99.90;;;;;;5090191;28;20365;-83
2023/01/21 20:25:58;;;;;;;13.07;7.18;;;2.40;99.90;;;;;;5090998;28;20360;-82
2023/01/21 20:28:38;;;;;;;13.73;7.47;;;2.40;99.90;;;;;;5088075;28;20407;-81
2023/01/21 20:31:08;;;;;;;11.20;6.80;;;2.40;99.90;;;;;;5088933;28;20451;-83
2023/01/21 20:33:35;;;;;;;10.82;7.22;;;2.50;99.90;;;;;;5089234;28;20895;-79
2023/01/21 20:36:04;;;;;;;10.38;6.45;;;2.50;99.90;;;;;;5090499;28;20487;-80
2023/01/21 20:38:34;;;;;;;11.10;6.78;;;2.50;99.90;;;;;;5089992;28;21000;-81
2023/01/21 20:41:05;;;;;;;11.88;6.55;;;2.50;99.90;;;;;;5090132;28;20495;-81
2023/01/21 20:43:33;;;;;;;12.20;6.73;;;2.50;99.90;;;;;;5090839;28;20399;-81
2023/01/21 20:46:04;;;;;;;10.88;5.97;;;2.50;99.90;;;;;;5091480;28;20364;-82
2023/01/21 20:48:35;;;;;;;9.93;5.88;;;2.60;99.90;;;;;;5090495;28;20375;-80
2023/01/21 20:51:02;;;;;;;8.70;6.15;;;2.60;99.90;;;;;;5088686;28;20448;-80
2023/01/21 20:53:29;;;;;;;14.02;6.45;;;2.60;99.90;;;;;;5090835;28;20375;-82
2023/01/21 20:55:55;;;;;;;9.80;5.57;;;2.60;99.90;;;;;;5090881;28;20395;-81
2023/01/21 20:58:25;;;;;;;10.98;6.07;;;2.60;99.90;;;;;;5088871;28;20823;-82
2023/01/21 21:00:51;;;;;;;9.70;5.93;;;2.60;99.90;;;;;;5088932;28;20448;-82
2023/01/21 21:03:17;;;;;;;10.23;5.72;;;2.60;99.90;;;;;;5090858;28;20388;-81
2023/01/21 21:05:47;;;;;;;10.75;5.90;;;2.70;99.90;;;;;;5088793;28;20504;-81
2023/01/21 21:08:18;;;;;;;10.02;5.78;;;2.60;99.90;;;;;;5090852;28;20365;-82
2023/01/21 21:10:45;;;;;;;13.32;5.63;;;2.70;99.90;;;;;;5087851;28;20383;-83
2023/01/21 21:13:12;;;;;;;10.88;6.22;;;2.70;99.90;;;;;;5089388;28;20388;-81
2023/01/21 21:15:39;;;;;;;12.05;5.60;;;2.60;99.90;;;;;;5095676;28;20441;-80
2023/01/21 21:18:05;;;;;;;10.38;5.55;;;2.60;99.90;;;;;;5109884;28;20383;-80
2023/01/21 21:20:35;;;;;;;10.53;5.93;;;2.70;99.90;;;;;;5114466;28;20436;-82
2023/01/21 21:23:03;;;;;;;9.45;5.20;;;2.80;99.90;;;;;;5094446;28;20392;-81
2023/01/21 21:25:31;;;;;;;13.32;6.10;;;2.70;99.90;;;;;;5091554;28;20360;-82
2023/01/21 21:27:58;;;;;;;9.50;5.30;;;2.60;99.90;;;;;;5103025;27;20405;-82
2023/01/21 21:30:27;;;;;;;9.32;5.20;;;2.70;99.90;;;;;;5109478;28;20387;-81
2023/01/21 21:32:55;;;;;;;10.85;5.40;;;2.70;99.90;;;;;;5097976;28;20432;-82
2023/01/21 21:35:35;;;;;;;10.73;5.57;;;2.70;99.90;;;;;;5090519;28;20373;-82
2023/01/21 21:38:13;;;;;;;8.40;5.50;;;2.70;99.90;;;;;;5088660;28;20739;-81
2023/01/21 21:40:39;;;;;;;12.65;5.57;;;2.60;99.90;;;;;;5090823;28;20392;-81
2023/01/21 21:48:36;;;;;;;14.15;6.38;;;2.70;99.90;;;;;;5089865;28;20375;-82
2023/01/21 21:51:03;;;;;;;8.88;5.35;;;2.60;99.90;;;;;;5095777;27;20469;-82
2023/01/21 21:53:29;;;;;;;11.82;5.95;;;2.70;99.90;;;;;;5089212;28;20376;-80
2023/01/21 21:56:19;;;;;;;8.75;5.60;;;2.60;99.90;;;;;;5091840;28;20380;-81
2023/01/21 21:58:45;;;;;;;10.48;5.88;;;2.70;99.90;;;;;;5088569;28;20388;-80
2023/01/21 22:01:14;;;;;;;10.95;6.03;;;2.70;99.90;;;;;;5086333;28;20474;-81
2023/01/21 22:03:40;;;;;;;10.50;5.70;;;2.70;99.90;;;;;;5085086;28;20723;-82
2023/01/21 22:06:07;;;;;;;9.90;5.50;;;2.70;99.90;;;;;;5089408;28;20387;-81
2023/01/21 22:08:38;;;;;;;9.15;5.57;;;2.60;99.90;;;;;;5088223;28;20377;-83
2023/01/21 22:11:09;;;;;;;9.93;5.78;;;2.60;99.90;;;;;;5087147;28;20860;-81
2023/01/21 22:13:39;;;;;;;9.00;5.80;;;2.60;99.90;;;;;;5089212;28;20458;-81
2023/01/21 22:16:06;;;;;;;8.77;5.80;;;2.60;99.90;;;;;;5087850;28;20510;-82
2023/01/21 22:18:34;;;;;;;7.13;5.32;;;2.60;99.90;;;;;;5088139;28;20396;-80
2023/01/21 22:21:05;;;;;;;10.17;5.53;;;2.60;99.90;;;;;;5089338;28;20444;-82
2023/01/21 22:23:33;;;;;;;10.73;6.00;;;2.60;99.90;;;;;;5087224;28;20399;-82
2023/01/21 22:26:05;;;;;;;11.10;6.15;;;2.50;99.90;;;;;;5088251;28;20529;-83
2023/01/21 22:28:33;;;;;;;10.45;6.00;;;2.50;99.90;;;;;;5087591;28;20366;-80
2023/01/21 22:31:02;;;;;;;8.90;5.70;;;2.60;99.90;;;;;;5089125;28;20862;-80
2023/01/21 22:33:29;;;;;;;10.18;6.70;;;2.60;99.90;;;;;;5085951;28;20882;-81
2023/01/21 22:35:55;;;;;;;7.30;6.07;;;2.40;99.90;;;;;;5089917;28;20705;-83
2023/01/21 22:38:21;;;;;;;9.88;6.50;;;2.50;99.90;;;;;;5087249;28;20376;-82
2023/01/21 22:40:54;;;;;;;9.80;6.23;;;2.40;99.90;;;;;;5091743;28;20400;-82
2023/01/21 22:43:21;;;;;;;10.38;6.40;;;2.40;99.90;;;;;;5089489;28;20448;-81
2023/01/21 22:45:47;;;;;;;11.98;6.70;;;2.40;99.90;;;;;;5088730;28;20368;-81